Time;durP1;ratioP1;P1;durP2;ratioP2;P2;SDS_P1;SDS_P2;PMS_P1;PMS_P2;Temp;Humidity;BMP_temperature;BMP_pressure;BME280_temperature;BME280_humidity;BME280_pressure;Samples;Min_cycle;Max_cycle;Signal;HPM_P1;HPM_P2
2021/03/27 00:00:31;;;;;;;;;;;17.30;59.30;;;;;;5027690;28;19928;-77
2021/03/27 00:03:09;;;;;;;;;;;17.30;59.30;;;;;;5030153;28;19914;-77
2021/03/27 00:05:39;;;;;;;;;;;17.30;59.30;;;;;;5048169;28;19976;-77
2021/03/27 00:08:11;;;;;;;;;;;17.30;59.30;;;;;;5029017;28;19951;-77
2021/03/27 00:10:37;;;;;;;;;;;17.30;59.30;;;;;;5030653;28;19928;-77
2021/03/27 00:13:08;;;;;;;;;;;17.30;59.30;;;;;;5030644;28;19917;-79
2021/03/27 00:15:38;;;;;;;;;;;17.30;59.30;;;;;;5022464;28;20025;-77
2021/03/27 00:18:18;;;;;;;;;;;17.30;59.30;;;;;;5026819;28;20269;-77
2021/03/27 00:20:49;;;;;;;;;;;17.30;59.30;;;;;;5027865;28;19927;-77
2021/03/27 00:23:22;;;;;;;;;;;17.30;59.30;;;;;;5032102;28;19909;-77
2021/03/27 00:25:53;;;;;;;;;;;17.30;59.30;;;;;;5031648;28;20007;-77
2021/03/27 00:28:31;;;;;;;;;;;17.30;59.30;;;;;;5033903;28;19913;-77
2021/03/27 00:30:59;;;;;;;;;;;17.30;59.30;;;;;;5030147;28;19920;-77
2021/03/27 00:33:26;;;;;;;;;;;17.30;59.40;;;;;;5021338;28;19964;-77
2021/03/27 00:35:56;;;;;;;;;;;17.30;59.30;;;;;;5023584;28;19914;-77
2021/03/27 00:38:23;;;;;;;;;;;17.30;59.30;;;;;;5030511;28;19917;-78
2021/03/27 00:40:49;;;;;;;;;;;17.30;59.30;;;;;;5029395;28;19925;-77
2021/03/27 00:43:18;;;;;;;;;;;17.30;59.40;;;;;;5033083;28;20023;-77
2021/03/27 00:45:47;;;;;;;;;;;17.30;59.40;;;;;;5043760;28;19952;-77
2021/03/27 00:48:15;;;;;;;;;;;17.30;59.40;;;;;;5022492;28;19944;-78
2021/03/27 00:50:44;;;;;;;;;;;17.30;59.40;;;;;;5031510;28;19924;-77
2021/03/27 00:53:20;;;;;;;;;;;17.30;59.40;;;;;;5048589;28;19921;-77
2021/03/27 00:55:48;;;;;;;;;;;17.30;59.40;;;;;;5026549;28;19913;-77
2021/03/27 00:58:15;;;;;;;;;;;17.30;59.40;;;;;;5025236;28;20408;-77
2021/03/27 01:00:41;;;;;;;;;;;17.30;59.40;;;;;;5035411;28;20350;-77
2021/03/27 01:03:29;;;;;;;;;;;17.30;59.40;;;;;;5049821;28;19920;-77
2021/03/27 01:05:55;;;;;;;;;;;17.30;59.40;;;;;;5035484;28;19927;-77
2021/03/27 01:08:22;;;;;;;;;;;17.30;59.40;;;;;;5050556;28;20270;-77
2021/03/27 01:10:53;;;;;;;;;;;17.30;59.40;;;;;;5045178;28;20023;-77
2021/03/27 01:13:22;;;;;;;;;;;17.30;59.40;;;;;;5034275;28;19939;-78
2021/03/27 01:16:07;;;;;;;;;;;17.30;59.40;;;;;;5047946;28;19917;-77
2021/03/27 01:18:56;;;;;;;;;;;17.30;59.40;;;;;;5031291;28;20031;-77
2021/03/27 01:21:27;;;;;;;;;;;17.30;59.40;;;;;;5033800;28;20003;-77
2021/03/27 01:23:59;;;;;;;;;;;17.30;59.40;;;;;;5050945;28;19982;-77
2021/03/27 01:26:28;;;;;;;;;;;17.30;59.40;;;;;;5015273;28;20294;-77
2021/03/27 01:28:59;;;;;;;;;;;17.30;59.40;;;;;;5049748;28;19917;-77
2021/03/27 01:31:31;;;;;;;;;;;17.30;59.40;;;;;;5064809;28;20011;-77
2021/03/27 01:34:02;;;;;;;;;;;17.30;59.40;;;;;;5046380;28;19917;-77
2021/03/27 01:36:51;;;;;;;;;;;17.30;59.40;;;;;;5051642;28;19985;-76
2021/03/27 01:39:23;;;;;;;;;;;17.30;59.40;;;;;;5039935;28;19961;-77
2021/03/27 01:41:55;;;;;;;;;;;17.30;59.40;;;;;;5049994;28;19921;-79
2021/03/27 01:44:29;;;;;;;;;;;17.30;59.40;;;;;;5039999;28;19912;-79
2021/03/27 01:47:15;;;;;;;;;;;17.30;59.40;;;;;;5069589;28;20293;-76
2021/03/27 01:49:57;;;;;;;;;;;17.30;59.40;;;;;;5036045;28;19921;-77
2021/03/27 01:52:28;;;;;;;;;;;17.30;59.40;;;;;;5036534;28;19963;-77
2021/03/27 01:55:06;;;;;;;;;;;17.30;59.40;;;;;;5054842;28;19920;-77
2021/03/27 01:57:41;;;;;;;;;;;17.30;59.40;;;;;;5069326;28;20655;-78
2021/03/27 02:00:14;;;;;;;;;;;17.30;59.40;;;;;;5046669;28;19913;-77
2021/03/27 02:02:50;;;;;;;;;;;17.30;59.40;;;;;;5038147;28;19962;-77
2021/03/27 02:05:25;;;;;;;;;;;17.30;59.40;;;;;;5042976;28;20428;-77
2021/03/27 02:08:02;;;;;;;;;;;17.30;59.40;;;;;;5046570;28;19913;-77
2021/03/27 02:10:37;;;;;;;;;;;17.30;59.40;;;;;;5045948;28;19955;-78
2021/03/27 02:13:06;;;;;;;;;;;17.30;59.40;;;;;;5053695;28;19917;-77
2021/03/27 02:15:50;;;;;;;;;;;17.30;59.40;;;;;;5051728;28;19923;-78
2021/03/27 02:18:35;;;;;;;;;;;17.30;59.40;;;;;;5048883;28;19922;-77
2021/03/27 02:21:12;;;;;;;;;;;17.30;59.40;;;;;;5036423;28;20289;-77
2021/03/27 02:23:44;;;;;;;;;;;17.30;59.40;;;;;;5055916;28;19924;-77
2021/03/27 02:26:12;;;;;;;;;;;17.30;59.40;;;;;;5061112;28;19917;-77
2021/03/27 02:28:47;;;;;;;;;;;17.30;59.40;;;;;;5062460;28;19917;-77
2021/03/27 02:31:15;;;;;;;;;;;17.30;59.40;;;;;;5054340;28;20258;-76
2021/03/27 02:33:41;;;;;;;;;;;17.30;59.40;;;;;;5056722;28;19921;-78
2021/03/27 02:36:19;;;;;;;;;;;17.30;59.40;;;;;;5065270;28;19920;-77
2021/03/27 02:38:47;;;;;;;;;;;17.30;59.40;;;;;;5041795;28;19913;-77
2021/03/27 02:41:13;;;;;;;;;;;17.30;59.40;;;;;;5055705;28;19964;-77
2021/03/27 02:43:40;;;;;;;;;;;17.30;59.30;;;;;;5046525;28;19956;-77
2021/03/27 02:46:11;;;;;;;;;;;17.30;59.40;;;;;;5047564;28;19912;-77
2021/03/27 02:48:42;;;;;;;;;;;17.30;59.40;;;;;;5036644;28;19967;-76
2021/03/27 02:51:10;;;;;;;;;;;17.30;59.40;;;;;;5041038;28;19921;-77
2021/03/27 02:53:43;;;;;;;;;;;17.30;59.40;;;;;;5060437;28;19916;-77
2021/03/27 02:56:12;;;;;;;;;;;17.30;59.40;;;;;;5045123;28;19913;-77
2021/03/27 02:58:43;;;;;;;;;;;17.30;59.40;;;;;;5046448;28;19923;-77
2021/03/27 03:01:14;;;;;;;;;;;17.30;59.40;;;;;;5049495;28;19924;-77
2021/03/27 03:03:50;;;;;;;;;;;17.30;59.40;;;;;;5044457;28;19919;-77
2021/03/27 03:06:26;;;;;;;;;;;17.30;59.40;;;;;;5040846;28;19917;-77
2021/03/27 03:09:24;;;;;;;;;;;17.30;59.40;;;;;;5032610;28;19960;-77
2021/03/27 03:12:07;;;;;;;;;;;17.30;59.40;;;;;;5030260;28;20414;-77
2021/03/27 03:14:33;;;;;;;;;;;17.30;59.40;;;;;;5046972;28;19914;-77
2021/03/27 03:17:25;;;;;;;;;;;17.30;59.40;;;;;;5034905;28;19916;-77
2021/03/27 03:19:55;;;;;;;;;;;17.30;59.40;;;;;;5027837;28;19919;-77
2021/03/27 03:22:39;;;;;;;;;;;17.30;59.40;;;;;;5027764;28;19913;-77
2021/03/27 03:25:12;;;;;;;;;;;17.30;59.40;;;;;;5047950;28;19936;-77
2021/03/27 03:27:54;;;;;;;;;;;17.30;59.40;;;;;;5044448;28;19940;-77
2021/03/27 03:30:28;;;;;;;;;;;17.30;59.50;;;;;;5030040;28;19917;-77
2021/03/27 03:33:12;;;;;;;;;;;17.30;59.50;;;;;;5040701;28;19975;-77
2021/03/27 03:35:43;;;;;;;;;;;17.30;59.50;;;;;;5049953;28;19916;-76
2021/03/27 03:38:23;;;;;;;;;;;17.30;59.40;;;;;;5026493;28;19917;-77
2021/03/27 03:40:49;;;;;;;;;;;17.30;59.50;;;;;;5063925;28;19966;-77
2021/03/27 03:43:21;;;;;;;;;;;17.30;59.40;;;;;;5052919;28;19913;-77
2021/03/27 03:45:46;;;;;;;;;;;17.30;59.50;;;;;;5068421;28;19917;-77
2021/03/27 03:48:15;;;;;;;;;;;17.30;59.40;;;;;;5052372;28;19913;-76
2021/03/27 03:50:44;;;;;;;;;;;17.30;59.40;;;;;;5045130;28;19917;-77
2021/03/27 03:53:26;;;;;;;;;;;17.30;59.50;;;;;;5060479;28;20074;-77
2021/03/27 03:55:58;;;;;;;;;;;17.30;59.50;;;;;;5029970;28;19920;-77
2021/03/27 03:58:47;;;;;;;;;;;17.30;59.50;;;;;;5051543;28;19913;-76
2021/03/27 04:01:16;;;;;;;;;;;17.30;59.50;;;;;;5042848;28;19913;-77
2021/03/27 04:03:53;;;;;;;;;;;17.30;59.50;;;;;;5034765;28;19983;-77
2021/03/27 04:06:21;;;;;;;;;;;17.30;59.50;;;;;;5029880;28;20313;-77
2021/03/27 04:09:05;;;;;;;;;;;17.30;59.50;;;;;;5045004;28;19916;-77
2021/03/27 04:11:33;;;;;;;;;;;17.30;59.50;;;;;;5044334;28;19917;-77
2021/03/27 04:14:00;;;;;;;;;;;17.30;59.50;;;;;;5052413;28;19986;-77
2021/03/27 04:16:26;;;;;;;;;;;17.30;59.50;;;;;;5054937;28;19920;-77
2021/03/27 04:19:03;;;;;;;;;;;17.30;59.50;;;;;;5031804;28;19913;-77
2021/03/27 04:21:52;;;;;;;;;;;17.30;59.50;;;;;;5066832;28;19912;-77
2021/03/27 04:24:28;;;;;;;;;;;17.30;59.50;;;;;;5055722;28;20639;-77
2021/03/27 04:26:56;;;;;;;;;;;17.30;59.50;;;;;;5033299;28;19913;-76
2021/03/27 04:29:28;;;;;;;;;;;17.30;59.50;;;;;;5029901;28;19917;-78
2021/03/27 04:32:12;;;;;;;;;;;17.30;59.50;;;;;;5042153;28;19944;-77
2021/03/27 04:34:46;;;;;;;;;;;17.30;59.50;;;;;;5047743;28;19917;-77
2021/03/27 04:37:18;;;;;;;;;;;17.30;59.50;;;;;;5046477;28;19913;-78
2021/03/27 04:39:56;;;;;;;;;;;17.30;59.50;;;;;;5034218;28;19913;-77
2021/03/27 04:42:28;;;;;;;;;;;17.30;59.50;;;;;;5023052;28;20024;-79
2021/03/27 04:45:08;;;;;;;;;;;17.30;59.50;;;;;;5040681;28;19992;-78
2021/03/27 04:47:36;;;;;;;;;;;17.30;59.50;;;;;;5031689;28;19913;-76
2021/03/27 04:50:01;;;;;;;;;;;17.30;59.50;;;;;;5034995;28;19956;-76
2021/03/27 04:52:35;;;;;;;;;;;17.30;59.50;;;;;;5064320;28;19961;-76
2021/03/27 04:55:13;;;;;;;;;;;17.30;59.50;;;;;;5050808;28;20432;-76
2021/03/27 04:57:57;;;;;;;;;;;17.30;59.50;;;;;;5050410;28;19919;-75
2021/03/27 05:00:25;;;;;;;;;;;17.30;59.50;;;;;;5067565;28;19956;-76
2021/03/27 05:02:51;;;;;;;;;;;17.30;59.50;;;;;;5034712;28;19916;-76
2021/03/27 05:05:27;;;;;;;;;;;17.30;59.50;;;;;;5055443;28;20345;-76
2021/03/27 05:07:58;;;;;;;;;;;17.30;59.50;;;;;;5051201;28;19912;-75
2021/03/27 05:10:24;;;;;;;;;;;17.30;59.50;;;;;;5059344;28;20333;-76
2021/03/27 05:13:08;;;;;;;;;;;17.30;59.50;;;;;;5049919;28;19917;-76
2021/03/27 05:15:43;;;;;;;;;;;17.30;59.50;;;;;;5050088;28;20000;-77
2021/03/27 05:18:35;;;;;;;;;;;17.30;59.50;;;;;;5022834;28;19921;-76
2021/03/27 05:21:05;;;;;;;;;;;17.30;59.50;;;;;;5050628;28;19974;-76
2021/03/27 05:23:48;;;;;;;;;;;17.30;59.50;;;;;;5054452;28;19917;-78
2021/03/27 05:26:21;;;;;;;;;;;17.30;59.50;;;;;;5042280;28;19934;-77
2021/03/27 05:28:55;;;;;;;;;;;17.30;59.50;;;;;;5031762;28;19917;-78
2021/03/27 05:31:27;;;;;;;;;;;17.30;59.50;;;;;;5058093;28;19948;-77
2021/03/27 05:34:02;;;;;;;;;;;17.30;59.50;;;;;;5053680;28;19924;-77
2021/03/27 05:36:43;;;;;;;;;;;17.30;59.50;;;;;;5072536;28;20039;-77
2021/03/27 05:39:29;;;;;;;;;;;17.30;59.50;;;;;;5063673;28;19917;-76
2021/03/27 05:42:13;;;;;;;;;;;17.30;59.50;;;;;;5049895;28;19921;-76
2021/03/27 05:44:47;;;;;;;;;;;17.30;59.50;;;;;;5047826;28;19920;-77
2021/03/27 05:47:46;;;;;;;;;;;17.30;59.40;;;;;;5032403;28;19963;-77
2021/03/27 05:50:25;;;;;;;;;;;17.40;59.40;;;;;;5055566;28;20366;-77
2021/03/27 05:53:06;;;;;;;;;;;17.30;59.40;;;;;;5034517;28;20282;-77
2021/03/27 05:55:50;;;;;;;;;;;17.30;59.40;;;;;;5052403;28;19913;-77
2021/03/27 05:58:15;;;;;;;;;;;17.30;59.40;;;;;;5065943;28;19913;-79
2021/03/27 06:00:56;;;;;;;;;;;17.30;59.40;;;;;;5067599;28;19919;-77
2021/03/27 06:03:40;;;;;;;;;;;17.30;59.30;;;;;;5039619;28;19912;-77
2021/03/27 06:06:24;;;;;;;;;;;17.40;59.30;;;;;;5041233;28;20480;-77
2021/03/27 06:08:49;;;;;;;;;;;17.40;59.30;;;;;;5051118;28;19913;-78
2021/03/27 06:11:24;;;;;;;;;;;17.40;59.30;;;;;;5066912;28;20359;-77
2021/03/27 06:14:03;;;;;;;;;;;17.40;59.30;;;;;;5053142;28;19921;-77
2021/03/27 06:16:48;;;;;;;;;;;17.40;59.20;;;;;;5031904;28;19919;-77
2021/03/27 06:19:49;;;;;;;;;;;17.40;59.20;;;;;;5068003;28;19919;-77
2021/03/27 06:22:23;;;;;;;;;;;17.40;59.20;;;;;;4977263;28;19909;-77
2021/03/27 06:24:52;;;;;;;;;;;17.40;59.20;;;;;;5029208;28;19914;-77
2021/03/27 06:27:27;;;;;;;;;;;17.40;59.10;;;;;;5061810;28;19920;-77
2021/03/27 06:30:11;;;;;;;;;;;17.40;59.10;;;;;;5051121;28;19917;-77
2021/03/27 06:32:48;;;;;;;;;;;17.40;59.10;;;;;;5059711;28;19913;-77
2021/03/27 06:35:30;;;;;;;;;;;17.40;59.10;;;;;;5050710;28;19924;-77
2021/03/27 06:38:04;;;;;;;;;;;17.40;59.10;;;;;;5047888;28;20697;-77
2021/03/27 06:40:30;;;;;;;;;;;17.50;59.10;;;;;;5055460;28;19921;-77
2021/03/27 06:42:58;;;;;;;;;;;17.50;59.00;;;;;;5046176;28;20417;-77
2021/03/27 06:45:42;;;;;;;;;;;17.50;59.00;;;;;;5041453;28;20000;-77
2021/03/27 06:48:24;;;;;;;;;;;17.50;59.00;;;;;;5070213;28;20007;-77
2021/03/27 06:50:50;;;;;;;;;;;17.50;59.00;;;;;;5033253;28;19999;-77
2021/03/27 06:53:34;;;;;;;;;;;17.50;59.00;;;;;;5059915;28;19953;-77
2021/03/27 06:56:12;;;;;;;;;;;17.50;59.00;;;;;;5043840;28;20414;-77
2021/03/27 06:58:55;;;;;;;;;;;17.50;59.00;;;;;;5067132;28;20026;-76
2021/03/27 07:01:39;;;;;;;;;;;17.50;58.90;;;;;;5039581;28;19913;-77
2021/03/27 07:04:05;;;;;;;;;;;17.50;58.90;;;;;;5049920;28;19936;-77
2021/03/27 07:06:43;;;;;;;;;;;17.50;58.80;;;;;;5068414;28;20365;-77
2021/03/27 07:09:08;;;;;;;;;;;17.60;58.80;;;;;;5053131;28;19913;-77
2021/03/27 07:11:40;;;;;;;;;;;17.60;58.70;;;;;;5043115;28;19917;-77
2021/03/27 07:14:05;;;;;;;;;;;17.60;58.60;;;;;;5051173;28;19917;-77
2021/03/27 07:16:33;;;;;;;;;;;17.60;58.60;;;;;;5045826;28;19913;-77
2021/03/27 07:19:17;;;;;;;;;;;17.60;58.60;;;;;;5049870;28;19913;-77
2021/03/27 07:21:49;;;;;;;;;;;17.60;58.70;;;;;;5068647;28;19912;-77
2021/03/27 07:24:34;;;;;;;;;;;17.60;58.60;;;;;;5039102;28;19921;-79
2021/03/27 07:27:05;;;;;;;;;;;17.60;58.60;;;;;;5069480;28;19920;-78
2021/03/27 07:29:50;;;;;;;;;;;17.60;58.60;;;;;;5050984;28;19909;-79
2021/03/27 07:32:49;;;;;;;;;;;17.60;58.60;;;;;;5068479;28;19959;-78
2021/03/27 07:35:29;;;;;;;;;;;17.60;58.70;;;;;;5045931;28;19909;-78
2021/03/27 07:37:55;;;;;;;;;;;17.50;58.80;;;;;;5037057;28;19909;-78
2021/03/27 07:40:40;;;;;;;;;;;17.60;58.80;;;;;;5054657;28;20591;-79
2021/03/27 07:46:14;;;;;;;;;;;17.50;58.90;;;;;;5046447;28;19973;-78
2021/03/27 07:48:59;;;;;;;;;;;17.50;59.00;;;;;;5036267;28;20354;-78
2021/03/27 07:51:24;;;;;;;;;;;17.50;59.00;;;;;;5050006;28;20290;-77
2021/03/27 07:53:56;;;;;;;;;;;17.50;59.10;;;;;;5063061;28;19913;-79
2021/03/27 07:56:24;;;;;;;;;;;17.50;59.10;;;;;;5038168;28;19913;-79
2021/03/27 07:59:09;;;;;;;;;;;17.50;59.00;;;;;;5031078;28;19959;-79
2021/03/27 08:01:37;;;;;;;;;;;17.40;59.10;;;;;;5066070;28;19913;-78
2021/03/27 08:04:03;;;;;;;;;;;17.50;59.00;;;;;;5046136;28;20007;-79
2021/03/27 08:06:32;;;;;;;;;;;17.40;59.10;;;;;;5043189;28;20270;-78
2021/03/27 08:08:58;;;;;;;;;;;17.50;59.00;;;;;;5031538;28;20413;-79
2021/03/27 08:11:47;;;;;;;;;;;17.50;59.00;;;;;;5060671;28;19917;-78
2021/03/27 08:14:12;;;;;;;;;;;17.50;59.00;;;;;;5021394;28;19917;-79
2021/03/27 08:16:39;;;;;;;;;;;17.50;59.00;;;;;;5068981;28;19970;-79
2021/03/27 08:19:14;;;;;;;;;;;17.50;59.00;;;;;;5066873;28;20034;-79
2021/03/27 08:21:39;;;;;;;;;;;17.50;58.90;;;;;;5064512;28;19920;-78
2021/03/27 08:24:23;;;;;;;;;;;17.50;59.00;;;;;;5060887;28;19913;-78
2021/03/27 08:26:59;;;;;;;;;;;17.50;59.00;;;;;;5057417;28;19959;-79
2021/03/27 08:29:44;;;;;;;;;;;17.50;59.00;;;;;;5030208;28;19913;-78
2021/03/27 08:32:36;;;;;;;;;;;17.50;58.90;;;;;;5055998;28;19930;-78
2021/03/27 08:35:20;;;;;;;;;;;17.50;58.90;;;;;;5052528;28;19921;-79
2021/03/27 08:38:08;;;;;;;;;;;17.50;58.90;;;;;;5061895;28;20366;-78
2021/03/27 08:40:45;;;;;;;;;;;17.60;58.80;;;;;;5043080;28;19921;-79
2021/03/27 08:43:32;;;;;;;;;;;17.60;58.80;;;;;;5055306;28;19955;-78
2021/03/27 08:46:17;;;;;;;;;;;17.60;58.70;;;;;;5069184;28;19912;-78
2021/03/27 08:48:54;;;;;;;;;;;17.60;58.70;;;;;;5053472;28;20370;-78
2021/03/27 08:51:25;;;;;;;;;;;17.60;58.50;;;;;;5069113;28;20050;-78
2021/03/27 08:53:50;;;;;;;;;;;17.70;58.50;;;;;;5071085;28;20007;-79
2021/03/27 08:56:37;;;;;;;;;;;17.70;58.50;;;;;;5060309;28;20328;-81
2021/03/27 08:59:24;;;;;;;;;;;17.70;58.50;;;;;;4997250;28;20378;-77
2021/03/27 09:02:13;;;;;;;;;;;17.70;58.50;;;;;;5056033;28;19920;-75
2021/03/27 09:04:38;;;;;;;;;;;17.70;58.50;;;;;;5048789;28;19970;-77
2021/03/27 09:07:10;;;;;;;;;;;17.70;58.40;;;;;;5051008;28;19920;-77
2021/03/27 09:09:51;;;;;;;;;;;17.70;58.40;;;;;;5066156;28;19970;-76
2021/03/27 09:12:38;;;;;;;;;;;17.80;58.40;;;;;;5056421;28;19916;-76
2021/03/27 09:15:03;;;;;;;;;;;17.80;58.20;;;;;;5036310;28;19935;-75
2021/03/27 09:17:40;;;;;;;;;;;17.80;58.10;;;;;;5054113;28;19913;-75
2021/03/27 09:20:15;;;;;;;;;;;17.80;58.00;;;;;;5056814;28;19959;-79
2021/03/27 09:22:43;;;;;;;;;;;17.80;58.00;;;;;;5052844;28;19914;-81
2021/03/27 09:25:27;;;;;;;;;;;17.80;57.90;;;;;;5040204;28;19921;-82
2021/03/27 09:28:11;;;;;;;;;;;17.80;57.90;;;;;;5054647;28;19940;-81
2021/03/27 09:30:48;;;;;;;;;;;17.90;57.90;;;;;;5057207;28;19917;-81
2021/03/27 09:33:30;;;;;;;;;;;17.90;57.90;;;;;;5048712;28;19917;-82
2021/03/27 09:36:12;;;;;;;;;;;17.90;57.80;;;;;;5030740;28;20007;-82
2021/03/27 09:38:38;;;;;;;;;;;17.90;57.80;;;;;;5069913;28;19920;-81
2021/03/27 09:41:10;;;;;;;;;;;18.00;57.80;;;;;;5041945;28;19921;-81
2021/03/27 09:44:02;;;;;;;;;;;17.90;57.70;;;;;;5068585;28;19913;-81
2021/03/27 09:46:43;;;;;;;;;;;17.90;57.70;;;;;;5039871;28;20406;-81
2021/03/27 09:49:29;;;;;;;;;;;17.90;57.70;;;;;;5037283;28;19921;-81
2021/03/27 09:52:18;;;;;;;;;;;17.90;57.60;;;;;;5056752;28;19921;-82
2021/03/27 09:55:02;;;;;;;;;;;17.90;57.50;;;;;;5057540;28;20370;-81
2021/03/27 09:57:45;;;;;;;;;;;18.00;57.60;;;;;;5054918;28;19919;-82
2021/03/27 10:00:39;;;;;;;;;;;18.00;57.60;;;;;;5038957;28;19999;-82
2021/03/27 10:03:25;;;;;;;;;;;17.90;57.60;;;;;;5048572;28;19966;-82
2021/03/27 10:05:52;;;;;;;;;;;17.90;57.70;;;;;;5037608;28;20005;-82
2021/03/27 10:08:26;;;;;;;;;;;17.90;57.70;;;;;;5041879;28;19920;-82
2021/03/27 10:11:20;;;;;;;;;;;17.90;57.70;;;;;;5037853;28;20384;-82
2021/03/27 10:14:05;;;;;;;;;;;17.90;57.70;;;;;;5042380;28;19916;-82
2021/03/27 10:16:49;;;;;;;;;;;17.90;57.70;;;;;;5048593;28;20381;-83
2021/03/27 10:19:17;;;;;;;;;;;17.90;57.70;;;;;;5041066;28;19940;-82
2021/03/27 10:21:58;;;;;;;;;;;17.90;57.80;;;;;;5051714;28;19943;-82
2021/03/27 10:24:40;;;;;;;;;;;17.90;57.70;;;;;;5056198;28;19913;-82
2021/03/27 10:27:10;;;;;;;;;;;18.00;57.70;;;;;;5025397;28;19920;-82
2021/03/27 10:29:42;;;;;;;;;;;18.00;57.60;;;;;;5054271;28;19960;-81
2021/03/27 10:32:23;;;;;;;;;;;17.90;57.70;;;;;;5069886;28;19921;-81
2021/03/27 10:34:55;;;;;;;;;;;17.90;57.70;;;;;;5052678;28;19912;-81
2021/03/27 10:37:44;;;;;;;;;;;17.90;57.70;;;;;;5041243;28;19913;-81
2021/03/27 10:40:28;;;;;;;;;;;18.00;57.70;;;;;;5022374;28;19914;-81
2021/03/27 10:42:54;;;;;;;;;;;18.00;57.60;;;;;;5042404;28;19913;-82
2021/03/27 10:45:41;;;;;;;;;;;18.00;57.60;;;;;;5063974;28;19916;-82
2021/03/27 10:48:07;;;;;;;;;;;18.00;57.60;;;;;;5047200;28;19917;-82
2021/03/27 10:50:51;;;;;;;;;;;18.00;57.50;;;;;;5072345;28;19913;-81
2021/03/27 10:53:20;;;;;;;;;;;18.00;57.60;;;;;;5063458;28;19955;-82
2021/03/27 10:55:58;;;;;;;;;;;18.00;57.60;;;;;;5065531;28;19909;-82
2021/03/27 10:58:26;;;;;;;;;;;17.90;57.70;;;;;;5031074;28;20349;-81
2021/03/27 11:00:51;;;;;;;;;;;17.80;57.80;;;;;;5034699;28;19913;-83
2021/03/27 11:03:17;;;;;;;;;;;17.90;57.90;;;;;;5060261;28;19916;-83
2021/03/27 11:06:01;;;;;;;;;;;17.90;58.00;;;;;;5060305;28;19924;-83
2021/03/27 11:08:46;;;;;;;;;;;17.90;58.00;;;;;;5028375;28;19963;-79
2021/03/27 11:11:30;;;;;;;;;;;17.80;58.10;;;;;;5050455;28;19917;-80
2021/03/27 11:13:56;;;;;;;;;;;17.80;58.20;;;;;;5047040;28;19917;-79
2021/03/27 11:16:28;;;;;;;;;;;17.80;58.30;;;;;;5047280;28;19921;-80
2021/03/27 11:18:59;;;;;;;;;;;17.70;58.40;;;;;;5052845;28;20354;-79
2021/03/27 11:21:28;;;;;;;;;;;17.70;58.40;;;;;;5050679;28;19975;-79
2021/03/27 11:24:19;;;;;;;;;;;17.70;58.50;;;;;;5040426;28;19909;-79
2021/03/27 11:27:02;;;;;;;;;;;17.70;58.60;;;;;;4944093;28;19957;-80
2021/03/27 11:29:33;;;;;;;;;;;17.70;58.60;;;;;;5027488;28;20006;-79
2021/03/27 11:32:18;;;;;;;;;;;17.70;58.50;;;;;;5051716;28;20370;-79
2021/03/27 11:35:12;;;;;;;;;;;17.70;58.60;;;;;;5050064;28;19909;-80
2021/03/27 11:37:56;;;;;;;;;;;17.70;58.60;;;;;;5025341;28;20381;-78
2021/03/27 11:40:28;;;;;;;;;;;17.70;58.60;;;;;;5062371;28;19947;-79
2021/03/27 11:43:11;;;;;;;;;;;17.70;58.60;;;;;;5038297;28;19913;-79
2021/03/27 11:45:42;;;;;;;;;;;17.70;58.50;;;;;;5024375;28;20377;-78
2021/03/27 11:48:19;;;;;;;;;;;17.70;58.40;;;;;;5028390;28;20269;-79
2021/03/27 11:50:51;;;;;;;;;;;17.80;58.30;;;;;;5031497;28;19917;-79
2021/03/27 11:53:21;;;;;;;;;;;17.80;58.30;;;;;;5032372;28;19921;-81
2021/03/27 11:56:07;;;;;;;;;;;17.80;58.30;;;;;;5017469;28;19917;-81
2021/03/27 11:59:41;;;;;;;;;;;17.80;58.10;;;;;;5042012;28;19913;-79
2021/03/27 12:01:26;;;;;;;;;;;17.80;58.00;;;;;;5050324;28;19913;-79
2021/03/27 12:03:58;;;;;;;;;;;17.90;57.90;;;;;;5043796;28;19914;-79
2021/03/27 12:06:29;;;;;;;;;;;18.00;57.80;;;;;;5042446;28;20436;-79
2021/03/27 12:09:07;;;;;;;;;;;17.90;57.80;;;;;;5048228;28;19937;-78
2021/03/27 12:11:51;;;;;;;;;;;17.90;57.80;;;;;;5030190;28;19916;-79
2021/03/27 12:14:20;;;;;;;;;;;17.90;57.80;;;;;;5050306;28;19921;-81
2021/03/27 12:17:04;;;;;;;;;;;17.90;57.90;;;;;;5033838;28;20313;-81
2021/03/27 12:19:33;;;;;;;;;;;17.90;57.90;;;;;;5065051;28;19913;-79
2021/03/27 12:22:17;;;;;;;;;;;18.00;57.80;;;;;;5030884;28;19916;-80
2021/03/27 12:25:01;;;;;;;;;;;18.00;57.70;;;;;;5028984;28;19967;-80
2021/03/27 12:27:33;;;;;;;;;;;18.00;57.70;;;;;;5045443;28;19913;-80
2021/03/27 12:30:22;;;;;;;;;;;17.90;57.70;;;;;;5039799;28;19921;-76
2021/03/27 12:33:00;;;;;;;;;;;18.00;57.60;;;;;;5032815;28;19921;-74
2021/03/27 12:35:32;;;;;;;;;;;18.00;57.50;;;;;;5033095;28;20274;-73
2021/03/27 12:38:11;;;;;;;;;;;18.10;57.50;;;;;;5031322;28;19919;-74
2021/03/27 12:40:52;;;;;;;;;;;18.10;57.40;;;;;;5035824;28;19928;-74
2021/03/27 12:43:19;;;;;;;;;;;18.10;57.40;;;;;;5051447;28;20380;-73
2021/03/27 12:45:48;;;;;;;;;;;18.10;57.40;;;;;;5031382;28;19913;-74
2021/03/27 12:48:43;;;;;;;;;;;18.00;57.50;;;;;;5035589;28;19913;-80
2021/03/27 12:51:27;;;;;;;;;;;18.00;57.60;;;;;;5021245;28;19924;-74
2021/03/27 12:54:33;;;;;;;;;;;18.00;57.60;;;;;;5044897;28;19924;-74
2021/03/27 12:57:17;;;;;;;;;;;18.00;57.60;;;;;;5020183;28;19999;-75
2021/03/27 12:59:45;;;;;;;;;;;18.00;57.70;;;;;;5038913;28;19909;-75
2021/03/27 13:02:29;;;;;;;;;;;18.00;57.70;;;;;;5047490;28;19967;-75
2021/03/27 13:05:08;;;;;;;;;;;17.90;57.80;;;;;;5059244;28;19916;-74
2021/03/27 13:07:52;;;;;;;;;;;18.00;57.80;;;;;;5045560;28;19991;-74
2021/03/27 13:10:20;;;;;;;;;;;17.90;57.90;;;;;;5044393;28;19940;-75
2021/03/27 13:13:06;;;;;;;;;;;17.90;57.90;;;;;;5045604;28;19940;-75
2021/03/27 13:15:52;;;;;;;;;;;17.90;58.00;;;;;;5063651;28;19970;-75
2021/03/27 13:18:36;;;;;;;;;;;17.90;58.00;;;;;;5023254;28;19928;-75
2021/03/27 13:21:18;;;;;;;;;;;17.90;58.00;;;;;;5058370;28;19957;-75
2021/03/27 13:23:58;;;;;;;;;;;17.90;58.00;;;;;;5056334;28;19913;-74
2021/03/27 13:26:31;;;;;;;;;;;17.90;57.90;;;;;;5042107;28;19913;-75
2021/03/27 13:29:05;;;;;;;;;;;17.90;57.80;;;;;;5050567;28;19936;-74
2021/03/27 13:31:37;;;;;;;;;;;18.00;57.80;;;;;;5027407;28;20354;-75
2021/03/27 13:34:07;;;;;;;;;;;17.90;57.80;;;;;;5042154;28;20476;-75
2021/03/27 13:36:35;;;;;;;;;;;18.00;57.70;;;;;;5031332;28;19967;-75
2021/03/27 13:39:08;;;;;;;;;;;18.00;57.70;;;;;;5033046;28;20279;-74
2021/03/27 13:41:36;;;;;;;;;;;18.00;57.70;;;;;;5049793;28;20017;-75
2021/03/27 13:44:01;;;;;;;;;;;18.00;57.70;;;;;;5064559;28;20377;-75
2021/03/27 13:46:31;;;;;;;;;;;18.00;57.80;;;;;;5054742;28;19912;-74
2021/03/27 13:49:15;;;;;;;;;;;17.90;57.80;;;;;;5033852;28;19913;-74
2021/03/27 13:51:42;;;;;;;;;;;18.00;57.80;;;;;;5036257;28;19921;-74
2021/03/27 13:54:11;;;;;;;;;;;18.00;57.70;;;;;;5032844;28;19917;-73
2021/03/27 13:56:50;;;;;;;;;;;18.00;57.70;;;;;;5061505;28;19913;-74
2021/03/27 13:59:15;;;;;;;;;;;18.00;57.70;;;;;;5041757;28;20393;-74
2021/03/27 14:01:44;;;;;;;;;;;18.00;57.70;;;;;;5051495;28;19912;-74
2021/03/27 14:04:30;;;;;;;;;;;18.00;57.60;;;;;;5054704;28;19975;-74
2021/03/27 14:06:59;;;;;;;;;;;18.10;57.60;;;;;;5042707;28;19975;-73
2021/03/27 14:09:36;;;;;;;;;;;18.10;57.50;;;;;;5018402;28;19949;-73
2021/03/27 14:12:05;;;;;;;;;;;18.10;57.40;;;;;;5018599;28;20016;-74
2021/03/27 14:14:31;;;;;;;;;;;18.10;57.30;;;;;;5068814;28;20329;-74
2021/03/27 14:17:07;;;;;;;;;;;18.20;57.30;;;;;;5042396;28;19940;-74
2021/03/27 14:19:51;;;;;;;;;;;18.10;57.40;;;;;;5032345;28;19917;-75
2021/03/27 14:22:30;;;;;;;;;;;18.10;57.40;;;;;;5045592;28;19920;-75
2021/03/27 14:24:59;;;;;;;;;;;18.10;57.30;;;;;;5031508;28;19912;-73
2021/03/27 14:27:51;;;;;;;;;;;18.20;57.40;;;;;;5041989;28;19920;-73
2021/03/27 14:30:35;;;;;;;;;;;18.10;57.40;;;;;;5028203;28;19917;-74
2021/03/27 14:33:10;;;;;;;;;;;18.10;57.40;;;;;;5054395;28;19917;-74
2021/03/27 14:35:41;;;;;;;;;;;18.10;57.50;;;;;;5040645;28;19920;-73
2021/03/27 14:38:19;;;;;;;;;;;18.00;57.60;;;;;;5050137;28;19914;-73
2021/03/27 14:40:45;;;;;;;;;;;18.10;57.70;;;;;;5035171;28;20378;-73
2021/03/27 14:43:21;;;;;;;;;;;18.00;57.70;;;;;;5051337;28;21407;-74
2021/03/27 14:45:59;;;;;;;;;;;18.00;57.70;;;;;;5068228;28;19967;-74
2021/03/27 14:48:29;;;;;;;;;;;18.00;57.70;;;;;;5025596;28;20442;-73
2021/03/27 14:51:01;;;;;;;;;;;18.00;57.70;;;;;;5017151;28;19917;-73
2021/03/27 14:53:30;;;;;;;;;;;18.00;57.60;;;;;;5051726;28;19921;-74
2021/03/27 14:56:28;;;;;;;;;;;18.10;57.60;;;;;;5068027;28;19917;-73
2021/03/27 14:59:15;;;;;;;;;;;18.00;57.50;;;;;;5025699;28;19912;-73
2021/03/27 15:01:46;;;;;;;;;;;18.10;57.50;;;;;;5034710;28;19913;-73
2021/03/27 15:04:32;;;;;;;;;;;18.10;57.50;;;;;;5028166;28;20007;-73
2021/03/27 15:07:00;;;;;;;;;;;18.00;57.50;;;;;;5037070;28;20006;-73
2021/03/27 15:09:44;;;;;;;;;;;18.00;57.60;;;;;;5034427;28;19935;-73